createdAt,value
2018-01-16T00:00:49.211Z,1.77
2018-01-16T00:01:51.739Z,2.25
2018-01-16T00:02:54.245Z,1.95
2018-01-16T00:03:56.757Z,1.80
2018-01-16T00:04:59.304Z,1.70
2018-01-16T00:06:01.826Z,1.73
2018-01-16T00:07:04.402Z,1.77
2018-01-16T00:08:06.909Z,2.28
2018-01-16T00:09:09.429Z,2.25
2018-01-16T00:10:11.945Z,1.98
2018-01-16T00:11:14.456Z,1.80
2018-01-16T00:12:17.018Z,1.40
2018-01-16T00:13:19.545Z,1.62
2018-01-16T00:14:22.058Z,1.70
2018-01-16T00:15:24.575Z,1.95
2018-01-16T00:16:27.097Z,2.00
2018-01-16T00:17:29.646Z,1.73
2018-01-16T00:18:32.158Z,2.22
2018-01-16T00:19:34.679Z,2.17
2018-01-16T00:20:37.200Z,2.05
2018-01-16T00:21:39.711Z,2.15
2018-01-16T00:22:42.272Z,2.05
2018-01-16T00:23:44.787Z,1.20
2018-01-16T00:24:47.322Z,1.42
2018-01-16T00:25:49.877Z,1.90
2018-01-16T00:26:52.390Z,1.60
2018-01-16T00:27:54.912Z,1.87
2018-01-16T00:28:57.434Z,1.35
2018-01-16T00:29:59.981Z,1.70
2018-01-16T00:31:02.784Z,1.75
2018-01-16T00:32:05.303Z,1.85
2018-01-16T00:33:08.568Z,1.58
2018-01-16T00:34:11.088Z,1.55
2018-01-16T00:35:13.630Z,1.30
2018-01-16T00:36:16.905Z,1.40
2018-01-16T00:37:20.199Z,1.70
2018-01-16T00:38:22.716Z,1.75
2018-01-16T00:39:25.232Z,1.40
2018-01-16T00:40:27.766Z,1.40
2018-01-16T00:41:30.280Z,1.67
2018-01-16T00:42:32.788Z,2.75
2018-01-16T00:43:35.306Z,2.90
2018-01-16T00:44:37.893Z,2.95
2018-01-16T00:45:40.407Z,2.60
2018-01-16T00:46:43.687Z,4.40
2018-01-16T00:47:46.201Z,4.40
2018-01-16T00:48:48.742Z,3.55
2018-01-16T00:49:51.301Z,3.15
2018-01-16T00:50:54.586Z,3.35
2018-01-16T00:51:57.862Z,3.55
2018-01-16T00:53:01.136Z,2.30
2018-01-16T00:54:03.650Z,2.10
2018-01-16T00:55:06.179Z,2.03
2018-01-16T00:56:09.504Z,1.87
2018-01-16T00:57:12.014Z,1.20
2018-01-16T00:58:14.525Z,1.50
2018-01-16T00:59:17.037Z,1.12
2018-01-16T01:00:19.577Z,1.30
2018-01-16T01:01:22.135Z,1.50
2018-01-16T01:02:24.653Z,1.70
2018-01-16T01:03:27.924Z,1.40
2018-01-16T01:04:30.437Z,1.75
2018-01-16T01:05:32.956Z,1.42
2018-01-16T01:06:35.508Z,1.30
2018-01-16T01:07:38.016Z,1.60
2018-01-16T01:08:40.530Z,1.23
2018-01-16T01:09:43.045Z,1.30
2018-01-16T01:10:45.566Z,1.25
2018-01-16T01:11:48.121Z,1.45
2018-01-16T01:12:50.904Z,1.40
2018-01-16T01:13:53.432Z,1.10
2018-01-16T01:14:55.944Z,1.40
2018-01-16T01:15:58.459Z,1.50
2018-01-16T01:17:00.965Z,1.10
2018-01-16T01:18:03.520Z,1.58
2018-01-16T01:19:06.092Z,1.23
2018-01-16T01:20:08.610Z,1.33
2018-01-16T01:21:11.888Z,1.20
2018-01-16T01:22:15.166Z,1.30
2018-01-16T01:23:18.473Z,1.30
2018-01-16T01:24:20.988Z,1.50
2018-01-16T01:25:23.529Z,1.17
2018-01-16T01:26:26.040Z,1.20
2018-01-16T01:27:28.556Z,1.35
2018-01-16T01:28:31.101Z,1.20
2018-01-16T01:29:33.621Z,1.40
2018-01-16T01:30:36.182Z,1.48
2018-01-16T01:31:38.704Z,1.48
2018-01-16T01:32:41.221Z,1.33
2018-01-16T01:33:43.736Z,1.55
2018-01-16T01:34:46.249Z,1.40
2018-01-16T01:35:48.792Z,1.55
2018-01-16T01:36:51.348Z,1.65
2018-01-16T01:37:53.876Z,1.50
2018-01-16T01:38:57.161Z,1.60
2018-01-16T01:40:00.444Z,1.60
2018-01-16T01:41:03.733Z,1.60
2018-01-16T01:42:07.079Z,1.52
2018-01-16T01:43:09.592Z,1.90
2018-01-16T01:44:12.115Z,1.60
2018-01-16T01:45:14.627Z,1.62
2018-01-16T01:46:17.140Z,2.00
2018-01-16T01:47:19.684Z,1.70
2018-01-16T01:48:22.236Z,1.90
2018-01-16T01:49:24.753Z,1.87
2018-01-16T01:50:27.265Z,2.00
2018-01-16T01:51:29.768Z,2.00
2018-01-16T01:52:32.281Z,2.15
2018-01-16T01:53:34.841Z,1.65
2018-01-16T01:54:38.111Z,1.85
2018-01-16T01:55:41.385Z,2.10
2018-01-16T01:56:43.903Z,1.83
2018-01-16T01:57:46.413Z,1.80
2018-01-16T01:58:48.960Z,2.28
2018-01-16T01:59:51.496Z,1.83
2018-01-16T02:00:54.012Z,1.90
2018-01-16T02:01:56.516Z,2.05
2018-01-16T02:02:59.032Z,2.45
2018-01-16T02:04:01.580Z,2.20
2018-01-16T02:05:04.095Z,1.87
2018-01-16T02:06:07.374Z,2.22
2018-01-16T02:07:10.660Z,1.90
2018-01-16T02:08:14.004Z,1.85
2018-01-16T02:09:16.514Z,1.30
2018-01-16T02:10:19.794Z,2.00
2018-01-16T02:11:23.079Z,2.30
2018-01-16T02:12:26.352Z,1.80
2018-01-16T02:13:29.660Z,1.75
2018-01-16T02:14:32.205Z,1.70
2018-01-16T02:15:35.484Z,1.80
2018-01-16T02:16:37.991Z,1.40
2018-01-16T02:17:40.504Z,1.80
2018-01-16T02:18:43.061Z,2.30
2018-01-16T02:19:45.568Z,2.37
2018-01-16T02:20:48.073Z,1.62
2018-01-16T02:21:50.583Z,2.15
2018-01-16T02:22:53.856Z,2.33
2018-01-16T02:23:56.413Z,2.15
2018-01-16T02:24:58.922Z,2.28
2018-01-16T02:26:01.441Z,3.08
2018-01-16T02:27:03.961Z,3.00
2018-01-16T02:28:06.475Z,3.28
2018-01-16T02:29:09.021Z,3.40
2018-01-16T02:30:12.311Z,3.25
2018-01-16T02:31:14.941Z,2.92
2018-01-16T02:32:17.514Z,3.08
2018-01-16T02:33:20.754Z,3.33
2018-01-16T02:34:23.302Z,2.62
2018-01-16T02:35:25.814Z,3.25
2018-01-16T02:36:28.336Z,3.08
2018-01-16T02:37:30.851Z,3.08
2018-01-16T02:38:33.360Z,3.00
2018-01-16T02:39:35.902Z,3.40
2018-01-16T02:40:38.420Z,3.37
2018-01-16T02:41:41.709Z,2.97
2018-01-16T02:42:44.988Z,3.05
2018-01-16T02:43:48.281Z,2.95
2018-01-16T02:44:51.570Z,3.10
2018-01-16T02:45:54.086Z,2.78
2018-01-16T02:46:56.593Z,2.45
2018-01-16T02:47:59.922Z,3.05
2018-01-16T02:49:02.429Z,2.60
2018-01-16T02:50:04.946Z,3.25
2018-01-16T02:51:07.456Z,2.80
2018-01-16T02:52:09.986Z,2.47
2018-01-16T02:53:12.553Z,2.90
2018-01-16T02:54:15.856Z,2.55
2018-01-16T02:55:18.369Z,2.15
2018-01-16T02:56:20.894Z,2.50
2018-01-16T02:57:23.408Z,2.50
2018-01-16T02:58:25.949Z,2.05
2018-01-16T02:59:29.228Z,2.10
2018-01-16T03:00:32.542Z,2.37
2018-01-16T03:01:35.059Z,1.73
2018-01-16T03:02:37.576Z,2.70
2018-01-16T03:03:40.090Z,2.40
2018-01-16T03:04:42.656Z,2.20
2018-01-16T03:05:45.181Z,2.35
2018-01-16T03:06:47.689Z,2.25
2018-01-16T03:07:50.257Z,1.80
2018-01-16T03:08:52.780Z,2.12
2018-01-16T03:11:04.328Z,1.65
2018-01-16T03:12:07.609Z,1.83
2018-01-16T03:13:10.130Z,1.65
2018-01-16T03:14:12.677Z,2.03
2018-01-16T03:15:15.283Z,2.33
2018-01-16T03:16:17.920Z,2.17
2018-01-16T03:17:20.425Z,2.03
2018-01-16T03:18:22.984Z,1.80
2018-01-16T03:19:25.501Z,1.80
2018-01-16T03:20:28.017Z,2.60
2018-01-16T03:21:30.525Z,1.75
2018-01-16T03:22:33.033Z,1.50
2018-01-16T03:23:35.600Z,1.60
2018-01-16T03:24:38.120Z,1.80
2018-01-16T03:25:40.623Z,1.62
2018-01-16T03:26:43.140Z,2.20
2018-01-16T03:27:46.416Z,2.15
2018-01-16T03:28:49.753Z,1.50
2018-01-16T03:29:52.264Z,1.30
2018-01-16T03:30:54.764Z,1.52
2018-01-16T03:31:57.273Z,1.40
2018-01-16T03:32:59.795Z,1.35
2018-01-16T03:34:02.353Z,1.50
2018-01-16T03:35:04.863Z,1.30
2018-01-16T03:36:07.375Z,1.58
2018-01-16T03:37:10.658Z,1.60
2018-01-16T03:38:13.929Z,1.60
2018-01-16T03:39:17.298Z,1.45
2018-01-16T03:40:19.812Z,1.40
2018-01-16T03:41:22.374Z,1.40
2018-01-16T03:42:24.883Z,1.40
2018-01-16T03:43:27.395Z,1.30
2018-01-16T03:44:29.911Z,1.55
2018-01-16T03:45:32.423Z,1.50
2018-01-16T03:46:35.740Z,1.60
2018-01-16T03:47:38.252Z,1.70
2018-01-16T03:48:40.772Z,1.62
2018-01-16T03:49:43.290Z,1.52
2018-01-16T03:50:46.564Z,1.60
2018-01-16T03:51:49.111Z,1.67
2018-01-16T03:52:51.623Z,1.65
2018-01-16T03:53:54.172Z,1.55
2018-01-16T03:54:57.447Z,1.23
2018-01-16T03:55:59.960Z,2.40
2018-01-16T03:57:02.474Z,1.70
2018-01-16T03:58:04.988Z,1.83
2018-01-16T03:59:08.394Z,1.48
2018-01-16T04:00:10.904Z,1.90
2018-01-16T04:01:14.180Z,1.73
2018-01-16T04:02:16.693Z,1.67
2018-01-16T04:03:19.365Z,1.40
2018-01-16T04:04:21.924Z,1.33
2018-01-16T04:05:24.436Z,1.73
2018-01-16T04:06:26.961Z,1.80
2018-01-16T04:07:29.476Z,1.83
2018-01-16T04:08:32.757Z,1.62
2018-01-16T04:09:35.313Z,1.30
2018-01-16T04:10:37.824Z,1.80
2018-01-16T04:11:40.333Z,1.75
2018-01-16T04:12:42.841Z,1.67
2018-01-16T04:13:46.121Z,1.33
2018-01-16T04:14:49.456Z,1.62
2018-01-16T04:15:51.972Z,1.30
2018-01-16T04:16:55.245Z,1.80
2018-01-16T04:17:58.523Z,1.42
2018-01-16T04:19:01.038Z,1.70
2018-01-16T04:20:04.424Z,1.77
2018-01-16T04:21:06.942Z,1.37
2018-01-16T04:22:10.225Z,1.62
2018-01-16T04:23:12.736Z,1.77
2018-01-16T04:24:15.240Z,1.52
2018-01-16T04:25:17.793Z,1.50
2018-01-16T04:26:20.304Z,1.00
2018-01-16T04:27:23.589Z,1.58
2018-01-16T04:28:26.869Z,1.80
2018-01-16T04:29:30.149Z,1.67
2018-01-16T04:30:33.486Z,1.70
2018-01-16T04:31:36.011Z,1.60
2018-01-16T04:32:39.286Z,1.55
2018-01-16T04:33:42.561Z,1.65
2018-01-16T04:34:45.068Z,1.60
2018-01-16T04:35:48.381Z,1.40
2018-01-16T04:36:50.899Z,1.70
2018-01-16T04:37:53.408Z,1.95
2018-01-16T04:38:55.912Z,1.75
2018-01-16T04:39:59.220Z,1.60
2018-01-16T04:41:01.738Z,1.40
2018-01-16T04:42:04.249Z,2.10
2018-01-16T04:43:06.764Z,1.50
2018-01-16T04:44:09.317Z,1.90
2018-01-16T04:45:11.828Z,1.60
2018-01-16T04:46:15.118Z,2.03
2018-01-16T04:47:18.397Z,1.90
2018-01-16T04:48:21.733Z,2.20
2018-01-16T04:49:24.278Z,1.65
2018-01-16T04:50:26.822Z,1.83
2018-01-16T04:51:30.101Z,1.95
2018-01-16T04:52:33.385Z,1.75
2018-01-16T04:53:36.696Z,1.75
2018-01-16T04:54:39.217Z,2.00
2018-01-16T04:55:41.735Z,1.92
2018-01-16T04:56:44.236Z,2.17
2018-01-16T04:57:46.749Z,2.40
2018-01-16T04:58:49.296Z,2.60
2018-01-16T04:59:52.570Z,2.22
2018-01-16T05:00:55.849Z,2.00
2018-01-16T05:01:59.165Z,2.22
2018-01-16T05:03:02.425Z,2.67
2018-01-16T05:04:05.764Z,1.90
2018-01-16T05:05:08.269Z,1.50
2018-01-16T05:06:11.546Z,1.70
2018-01-16T05:07:14.058Z,1.70
2018-01-16T05:08:16.572Z,1.45
2018-01-16T05:09:19.132Z,1.92
2018-01-16T05:10:21.636Z,1.50
2018-01-16T05:11:24.173Z,1.87
2018-01-16T05:12:26.681Z,1.30
2018-01-16T05:13:29.236Z,1.50
2018-01-16T05:14:31.751Z,1.75
2018-01-16T05:15:34.264Z,1.30
2018-01-16T05:16:37.540Z,1.62
2018-01-16T05:17:40.812Z,1.60
2018-01-16T05:18:44.127Z,1.55
2018-01-16T05:19:46.639Z,1.37
2018-01-16T05:20:49.157Z,1.10
2018-01-16T05:21:51.662Z,1.40
2018-01-16T05:22:54.198Z,1.37
2018-01-16T05:23:56.757Z,1.00
2018-01-16T05:24:59.264Z,1.48
2018-01-16T05:26:01.780Z,1.20
2018-01-16T05:27:04.288Z,1.50
2018-01-16T05:28:06.800Z,1.35
2018-01-16T05:29:10.121Z,1.42
2018-01-16T05:30:12.633Z,1.30
2018-01-16T05:31:15.137Z,1.35
2018-01-16T05:32:17.652Z,1.60
2018-01-16T05:33:20.170Z,1.33
2018-01-16T05:34:22.716Z,1.35
2018-01-16T05:35:25.312Z,1.42
2018-01-16T05:36:27.825Z,1.65
2018-01-16T05:37:30.333Z,1.30
2018-01-16T05:38:32.847Z,1.20
2018-01-16T05:39:35.403Z,1.40
2018-01-16T05:40:37.905Z,1.33
2018-01-16T05:41:41.180Z,1.30
2018-01-16T05:42:44.465Z,1.27
2018-01-16T05:43:47.789Z,1.30
2018-01-16T05:44:50.329Z,1.10
2018-01-16T05:45:53.613Z,1.40
2018-01-16T05:46:56.118Z,1.35
2018-01-16T05:47:58.630Z,1.85
2018-01-16T05:49:01.950Z,1.45
2018-01-16T05:50:04.467Z,1.70
2018-01-16T05:51:06.978Z,1.90
2018-01-16T05:52:09.483Z,1.70
2018-01-16T05:53:11.992Z,1.42
2018-01-16T05:54:14.546Z,1.80
2018-01-16T05:55:17.823Z,1.98
2018-01-16T05:56:21.097Z,2.10
2018-01-16T05:57:23.611Z,2.17
2018-01-16T05:58:26.180Z,1.70
2018-01-16T05:59:28.727Z,1.55
2018-01-16T06:00:31.245Z,1.85
2018-01-16T06:01:33.753Z,1.58
2018-01-16T06:02:37.027Z,2.08
2018-01-16T06:03:40.316Z,1.65
2018-01-16T06:04:43.624Z,1.73
2018-01-16T06:05:46.137Z,1.73
2018-01-16T06:06:48.652Z,1.85
2018-01-16T06:07:51.215Z,1.67
2018-01-16T06:08:53.752Z,2.00
2018-01-16T06:09:57.034Z,2.25
2018-01-16T06:11:00.303Z,1.67
2018-01-16T06:12:02.816Z,1.70
2018-01-16T06:13:05.377Z,1.77
2018-01-16T06:14:07.880Z,1.90
2018-01-16T06:15:10.385Z,2.30
2018-01-16T06:16:13.657Z,1.70
2018-01-16T06:17:16.171Z,1.85
2018-01-16T06:18:18.742Z,1.55
2018-01-16T06:19:21.261Z,1.70
2018-01-16T06:20:24.541Z,1.40
2018-01-16T06:21:27.824Z,1.42
2018-01-16T06:22:30.340Z,1.70
2018-01-16T06:23:32.899Z,1.65
2018-01-16T06:24:35.420Z,1.67
2018-01-16T06:25:37.930Z,2.00
2018-01-16T06:26:40.428Z,1.55
2018-01-16T06:27:42.943Z,1.50
2018-01-16T06:28:45.488Z,2.05
2018-01-16T06:29:47.996Z,1.92
2018-01-16T06:30:50.505Z,1.70
2018-01-16T06:31:53.025Z,5.68
2018-01-16T06:32:55.532Z,2.35
2018-01-16T06:33:58.091Z,1.67
2018-01-16T06:35:00.610Z,1.50
2018-01-16T06:36:03.130Z,1.60
2018-01-16T06:37:05.646Z,2.42
2018-01-16T06:38:08.161Z,1.33
2018-01-16T06:39:10.716Z,1.10
2018-01-16T06:40:13.235Z,0.90
2018-01-16T06:41:15.743Z,0.98
2018-01-16T06:42:18.256Z,0.90
2018-01-16T06:43:20.795Z,0.85
2018-01-16T06:44:23.478Z,0.68
2018-01-16T06:45:26.846Z,0.90
2018-01-16T06:46:29.357Z,0.70
2018-01-16T06:47:31.869Z,0.80
2018-01-16T06:48:34.378Z,0.80
2018-01-16T06:49:37.696Z,0.55
2018-01-16T06:50:40.218Z,0.82
2018-01-16T06:51:43.505Z,0.70
2018-01-16T06:52:46.780Z,1.05
2018-01-16T06:53:50.058Z,0.93
2018-01-16T06:54:52.624Z,0.73
2018-01-16T06:55:55.136Z,0.70
2018-01-16T06:56:57.649Z,0.70
2018-01-16T06:58:00.183Z,0.70
2018-01-16T06:59:02.708Z,0.70
2018-01-16T07:00:06.024Z,0.80
2018-01-16T07:01:08.548Z,0.80
2018-01-16T07:02:11.882Z,1.05
2018-01-16T07:03:14.366Z,0.90
2018-01-16T07:04:16.888Z,1.23
2018-01-16T07:05:19.442Z,0.70
2018-01-16T07:06:21.952Z,1.00
2018-01-16T07:07:24.461Z,1.20
2018-01-16T07:08:27.738Z,1.65
2018-01-16T07:09:31.022Z,1.15
2018-01-16T07:10:34.340Z,1.52
2018-01-16T07:11:36.865Z,1.70
2018-01-16T07:12:40.169Z,2.42
2018-01-16T07:13:42.692Z,1.33
2018-01-16T07:14:45.214Z,1.40
2018-01-16T07:15:47.755Z,1.67
2018-01-16T07:16:51.046Z,1.95
2018-01-16T07:17:54.332Z,1.35
2018-01-16T07:18:57.635Z,1.40
2018-01-16T07:20:00.150Z,1.25
2018-01-16T07:21:02.700Z,1.23
2018-01-16T07:22:05.214Z,1.62
2018-01-16T07:23:08.504Z,1.25
2018-01-16T07:24:11.781Z,2.75
2018-01-16T07:25:15.068Z,3.00
2018-01-16T07:26:17.637Z,3.12
2018-01-16T07:27:20.904Z,1.30
2018-01-16T07:28:24.208Z,1.40
2018-01-16T07:29:26.731Z,1.45
2018-01-16T07:30:29.402Z,1.45
2018-01-16T07:31:31.965Z,1.20
2018-01-16T07:32:34.468Z,1.17
2018-01-16T07:33:36.988Z,1.40
2018-01-16T07:34:39.500Z,1.30
2018-01-16T07:35:42.781Z,1.85
2018-01-16T07:36:46.093Z,1.30
2018-01-16T07:37:48.619Z,1.35
2018-01-16T07:38:51.897Z,2.17
2018-01-16T07:39:54.413Z,1.35
2018-01-16T07:40:56.922Z,1.35
2018-01-16T07:41:59.485Z,1.33
2018-01-16T07:43:01.989Z,1.00
2018-01-16T07:44:04.504Z,0.90
2018-01-16T07:45:07.017Z,1.00
2018-01-16T07:46:09.533Z,1.00
2018-01-16T07:47:12.085Z,1.27
2018-01-16T07:48:14.592Z,0.90
2018-01-16T07:49:17.881Z,0.98
2018-01-16T07:50:21.153Z,0.98
2018-01-16T07:51:23.660Z,0.93
2018-01-16T07:52:26.276Z,0.90
2018-01-16T07:53:28.789Z,1.15
2018-01-16T07:54:31.300Z,1.00
2018-01-16T07:55:33.817Z,1.00
2018-01-16T07:56:36.343Z,0.95
2018-01-16T07:57:38.924Z,1.10
2018-01-16T07:58:42.202Z,1.10
2018-01-16T07:59:44.718Z,1.10
2018-01-16T08:00:47.232Z,1.10
2018-01-16T08:01:49.742Z,0.80
2018-01-16T08:02:52.321Z,0.88
2018-01-16T08:03:54.825Z,0.77
2018-01-16T08:04:57.332Z,0.90
2018-01-16T08:05:59.836Z,0.90
2018-01-16T08:07:02.342Z,0.80
2018-01-16T08:08:04.907Z,0.90
2018-01-16T08:09:08.185Z,0.90
2018-01-16T08:10:11.456Z,0.80
2018-01-16T08:11:13.964Z,0.80
2018-01-16T08:12:16.467Z,0.77
2018-01-16T08:13:19.037Z,1.30
2018-01-16T08:14:21.541Z,1.50
2018-01-16T08:15:24.809Z,1.35
2018-01-16T08:16:27.409Z,1.15
2018-01-16T08:17:29.912Z,1.30
2018-01-16T08:18:32.707Z,1.50
2018-01-16T08:19:35.218Z,1.62
2018-01-16T08:20:37.728Z,1.25
2018-01-16T08:21:40.233Z,1.00
2018-01-16T08:22:42.752Z,1.00
2018-01-16T08:23:45.297Z,1.10
2018-01-16T08:24:47.804Z,0.95
2018-01-16T08:25:51.084Z,1.20
2018-01-16T08:26:53.591Z,1.10
2018-01-16T08:27:56.101Z,1.37
2018-01-16T08:28:58.671Z,1.23
2018-01-16T08:30:01.190Z,1.50
2018-01-16T08:31:03.699Z,1.50
2018-01-16T08:32:06.217Z,1.70
2018-01-16T08:33:08.729Z,1.30
2018-01-16T08:34:11.351Z,0.98
2018-01-16T08:35:13.861Z,1.60
2018-01-16T08:36:16.372Z,1.20
2018-01-16T08:37:18.896Z,1.27
2018-01-16T08:38:21.410Z,1.20
2018-01-16T08:39:23.981Z,1.30
2018-01-16T08:40:26.492Z,1.30
2018-01-16T08:41:29.040Z,1.42
2018-01-16T08:42:31.543Z,2.05
2018-01-16T08:43:34.824Z,2.10
2018-01-16T08:44:37.380Z,1.90
2018-01-16T08:45:39.897Z,1.48
2018-01-16T08:46:42.404Z,1.10
2018-01-16T08:47:44.929Z,1.23
2018-01-16T08:48:47.437Z,1.20
2018-01-16T08:49:49.998Z,1.60
2018-01-16T08:50:52.521Z,3.60
2018-01-16T08:51:55.029Z,1.35
2018-01-16T08:52:57.544Z,1.20
2018-01-16T08:54:00.073Z,1.20
2018-01-16T08:55:02.624Z,1.35
2018-01-16T08:56:05.137Z,1.95
2018-01-16T08:57:08.411Z,1.35
2018-01-16T08:58:11.684Z,1.30
2018-01-16T08:59:14.185Z,0.80
2018-01-16T09:00:16.753Z,0.90
2018-01-16T09:01:19.260Z,0.90
2018-01-16T09:02:21.770Z,1.35
2018-01-16T09:03:24.286Z,0.85
2018-01-16T09:04:26.810Z,0.90
2018-01-16T09:05:29.516Z,0.90
2018-01-16T09:06:32.024Z,1.20
2018-01-16T09:07:35.310Z,1.37
2018-01-16T09:08:38.585Z,1.60
2018-01-16T09:09:41.097Z,1.40
2018-01-16T09:10:43.661Z,1.42
2018-01-16T09:11:46.169Z,1.50
2018-01-16T09:12:48.681Z,1.23
2018-01-16T09:13:51.190Z,1.45
2018-01-16T09:14:53.701Z,1.50
2018-01-16T09:15:56.249Z,1.25
2018-01-16T09:16:59.520Z,1.40
2018-01-16T09:18:02.809Z,1.52
2018-01-16T09:19:06.238Z,1.33
2018-01-16T09:20:08.745Z,1.50
2018-01-16T09:21:11.307Z,1.52
2018-01-16T09:22:13.812Z,1.40
2018-01-16T09:23:16.324Z,1.65
2018-01-16T09:24:18.836Z,1.67
2018-01-16T09:25:21.348Z,1.75
2018-01-16T09:26:23.904Z,1.85
2018-01-16T09:27:26.455Z,1.85
2018-01-16T09:28:28.960Z,1.80
2018-01-16T09:29:31.513Z,2.00
2018-01-16T09:30:34.025Z,1.42
2018-01-16T09:31:37.333Z,2.05
2018-01-16T09:32:39.839Z,1.70
2018-01-16T09:33:42.352Z,1.50
2018-01-16T09:34:45.620Z,1.80
2018-01-16T09:35:48.953Z,1.90
2018-01-16T09:36:51.464Z,2.22
2018-01-16T09:37:53.973Z,1.60
2018-01-16T09:38:56.486Z,2.78
2018-01-16T09:39:58.997Z,3.37
2018-01-16T09:41:01.553Z,3.83
2018-01-16T09:42:04.070Z,2.70
2018-01-16T09:43:06.577Z,4.20
2018-01-16T09:44:09.695Z,3.15
2018-01-16T09:45:12.213Z,3.20
2018-01-16T09:46:15.533Z,2.72
2018-01-16T09:47:18.049Z,3.50
2018-01-16T09:48:20.571Z,3.12
2018-01-16T09:49:23.083Z,2.90
2018-01-16T09:50:25.593Z,3.50
2018-01-16T09:51:28.153Z,2.35
2018-01-16T09:52:30.660Z,2.37
2018-01-16T09:53:33.168Z,2.00
2018-01-16T09:54:36.440Z,2.10
2018-01-16T09:55:39.721Z,4.78
2018-01-16T09:56:43.047Z,1.90
2018-01-16T09:57:45.552Z,3.03
2018-01-16T09:58:48.060Z,2.00
2018-01-16T09:59:50.571Z,1.70
2018-01-16T10:00:53.080Z,2.30
2018-01-16T10:01:56.401Z,2.28
2018-01-16T10:02:58.918Z,2.28
2018-01-16T10:04:02.194Z,2.15
2018-01-16T10:05:04.704Z,1.95
2018-01-16T10:06:07.209Z,1.90
2018-01-16T10:07:09.748Z,2.37
2018-01-16T10:08:12.300Z,2.35
2018-01-16T10:09:14.808Z,2.47
2018-01-16T10:10:17.322Z,1.98
2018-01-16T10:11:19.841Z,2.22
2018-01-16T10:12:22.354Z,1.87
2018-01-16T10:13:24.905Z,1.50
2018-01-16T10:14:27.424Z,1.45
2018-01-16T10:15:29.931Z,1.23
2018-01-16T10:16:33.214Z,1.70
2018-01-16T10:17:36.489Z,1.80
2018-01-16T10:18:39.894Z,2.85
2018-01-16T10:19:42.403Z,2.70
2018-01-16T10:20:44.908Z,3.67
2018-01-16T10:21:48.180Z,3.80
2018-01-16T10:22:50.686Z,3.17
2018-01-16T10:23:53.250Z,2.80
2018-01-16T10:24:55.761Z,2.90
2018-01-16T10:25:58.274Z,2.70
2018-01-16T10:27:00.780Z,3.03
2018-01-16T10:28:03.284Z,3.22
2018-01-16T10:29:06.601Z,4.25
2018-01-16T10:30:09.114Z,3.55
2018-01-16T10:31:11.733Z,2.75
2018-01-16T10:32:14.240Z,2.30
2018-01-16T10:33:16.749Z,1.80
2018-01-16T10:34:20.074Z,2.20
2018-01-16T10:35:22.593Z,1.42
2018-01-16T10:36:25.865Z,1.45
2018-01-16T10:37:29.148Z,1.73
2018-01-16T10:38:32.428Z,1.60
2018-01-16T10:39:34.989Z,1.10
2018-01-16T10:40:37.505Z,1.30
2018-01-16T10:41:40.043Z,1.17
2018-01-16T10:42:43.322Z,1.90
2018-01-16T10:43:46.637Z,1.45
2018-01-16T10:44:49.145Z,0.90
2018-01-16T10:45:51.658Z,1.25
2018-01-16T10:46:54.168Z,1.02
2018-01-16T10:47:56.689Z,1.05
2018-01-16T10:48:59.239Z,1.27
2018-01-16T10:50:02.518Z,1.10
2018-01-16T10:51:05.797Z,1.27
2018-01-16T10:52:09.109Z,1.50
2018-01-16T10:53:11.621Z,1.12
2018-01-16T10:54:14.172Z,1.10
2018-01-16T10:55:16.688Z,1.00
2018-01-16T10:56:19.958Z,1.30
2018-01-16T10:57:23.241Z,0.73
2018-01-16T10:58:26.558Z,0.90
2018-01-16T10:59:29.104Z,0.90
2018-01-16T11:00:32.389Z,1.10
2018-01-16T11:01:35.663Z,1.17
2018-01-16T11:02:38.948Z,1.02
2018-01-16T11:03:42.289Z,1.08
2018-01-16T11:04:44.907Z,1.12
2018-01-16T11:05:47.393Z,1.30
2018-01-16T11:06:50.031Z,1.35
2018-01-16T11:07:53.302Z,0.90
2018-01-16T11:08:55.813Z,0.90
2018-01-16T11:09:58.364Z,0.90
2018-01-16T11:11:00.881Z,0.95
2018-01-16T11:12:03.432Z,0.90
2018-01-16T11:13:05.947Z,0.95
2018-01-16T11:14:09.817Z,1.15
2018-01-16T11:15:12.321Z,0.95
2018-01-16T11:16:15.599Z,1.20
2018-01-16T11:17:18.909Z,1.10
2018-01-16T11:18:22.184Z,1.10
2018-01-16T11:19:24.697Z,1.00
2018-01-16T11:20:27.204Z,1.40
2018-01-16T11:21:30.476Z,1.35
2018-01-16T11:22:33.790Z,1.30
2018-01-16T11:23:36.329Z,1.50
2018-01-16T11:24:39.646Z,1.00
2018-01-16T11:25:42.291Z,0.90
2018-01-16T11:26:45.571Z,0.90
2018-01-16T11:27:48.849Z,1.20
2018-01-16T11:28:52.132Z,0.82
2018-01-16T11:29:55.454Z,1.08
2018-01-16T11:30:57.980Z,1.00
2018-01-16T11:32:01.256Z,0.75
2018-01-16T11:33:03.765Z,1.10
2018-01-16T11:34:06.269Z,0.90
2018-01-16T11:35:08.809Z,0.88
2018-01-16T11:36:11.333Z,0.80
2018-01-16T11:37:14.667Z,0.90
2018-01-16T11:38:17.180Z,1.05
2018-01-16T11:39:20.464Z,0.80
2018-01-16T11:40:23.745Z,0.90
2018-01-16T11:41:26.275Z,0.90
2018-01-16T11:42:28.843Z,1.98
2018-01-16T11:43:31.345Z,1.17
2018-01-16T11:44:34.625Z,1.00
2018-01-16T11:45:37.916Z,1.10
2018-01-16T11:46:41.194Z,0.77
2018-01-16T11:47:44.518Z,0.75
2018-01-16T11:48:47.796Z,1.10
2018-01-16T11:49:50.309Z,1.10
2018-01-16T11:50:52.834Z,0.80
2018-01-16T11:51:55.354Z,0.80
2018-01-16T11:52:58.681Z,0.85
2018-01-16T11:54:01.196Z,1.20
2018-01-16T11:55:04.477Z,1.05
2018-01-16T11:56:06.991Z,1.12
2018-01-16T11:57:09.500Z,0.90
2018-01-16T11:58:12.064Z,1.00
2018-01-16T11:59:14.589Z,1.25
2018-01-16T12:00:17.105Z,1.30
2018-01-16T12:01:19.616Z,0.70
2018-01-16T12:02:22.121Z,0.60
2018-01-16T12:03:24.685Z,0.70
2018-01-16T12:04:27.197Z,0.80
2018-01-16T12:05:29.701Z,0.60
2018-01-16T12:06:32.212Z,1.10
2018-01-16T12:07:35.497Z,0.50
2018-01-16T12:08:38.050Z,0.60
2018-01-16T12:09:40.559Z,0.60
2018-01-16T12:10:43.067Z,0.60
2018-01-16T12:11:45.572Z,0.50
2018-01-16T12:12:48.845Z,0.50
2018-01-16T12:13:52.166Z,0.60
2018-01-16T12:14:54.712Z,0.60
2018-01-16T12:15:57.993Z,0.70
2018-01-16T12:17:00.501Z,0.60
2018-01-16T12:18:03.014Z,0.60
2018-01-16T12:19:06.335Z,0.50
2018-01-16T12:20:08.844Z,0.70
2018-01-16T12:21:11.356Z,0.50
2018-01-16T12:22:13.873Z,0.50
2018-01-16T12:23:16.384Z,3.65
2018-01-16T12:24:18.941Z,1.25
2018-01-16T12:25:21.461Z,0.60
2018-01-16T12:26:23.969Z,0.80
2018-01-16T12:27:26.477Z,0.60
2018-01-16T12:28:29.013Z,0.60
2018-01-16T12:29:31.585Z,0.70
2018-01-16T12:30:34.098Z,0.95
2018-01-16T12:31:36.620Z,0.57
2018-01-16T12:32:39.132Z,0.70
2018-01-16T12:33:41.640Z,0.60
2018-01-16T12:34:44.192Z,0.80
2018-01-16T12:35:46.706Z,0.60
2018-01-16T12:36:49.212Z,0.60
2018-01-16T12:37:52.494Z,0.70
2018-01-16T12:38:55.786Z,0.70
2018-01-16T12:39:58.330Z,0.62
2018-01-16T12:41:01.650Z,0.60
2018-01-16T12:42:04.224Z,0.60
2018-01-16T12:43:06.729Z,0.65
2018-01-16T12:44:09.548Z,0.50
2018-01-16T12:45:12.068Z,0.80
2018-01-16T12:46:14.586Z,0.60
2018-01-16T12:47:17.137Z,0.70
2018-01-16T12:48:20.416Z,0.60
2018-01-16T12:49:23.689Z,0.65
2018-01-16T12:50:26.204Z,0.60
2018-01-16T12:51:28.708Z,0.65
2018-01-16T12:52:31.252Z,0.60
2018-01-16T12:53:33.765Z,0.60
2018-01-16T12:54:37.061Z,0.80
2018-01-16T12:55:39.565Z,1.30
2018-01-16T12:56:42.116Z,0.90
2018-01-16T12:57:44.621Z,0.68
2018-01-16T12:58:47.240Z,0.90
2018-01-16T12:59:49.766Z,0.80
2018-01-16T13:00:52.278Z,0.93
2018-01-16T13:01:54.844Z,0.80
2018-01-16T13:02:57.361Z,0.80
2018-01-16T13:04:00.637Z,0.75
2018-01-16T13:05:03.145Z,0.70
2018-01-16T13:06:05.655Z,0.75
2018-01-16T13:07:08.204Z,1.00
2018-01-16T13:08:10.713Z,0.90
2018-01-16T13:09:14.000Z,1.15
2018-01-16T13:10:17.284Z,0.82
2018-01-16T13:11:20.569Z,1.10
2018-01-16T13:12:23.917Z,0.80
2018-01-16T13:13:26.419Z,1.08
2018-01-16T13:14:29.695Z,0.85
2018-01-16T13:15:32.980Z,1.20
2018-01-16T13:16:36.253Z,1.45
2018-01-16T13:17:38.806Z,1.73
2018-01-16T13:18:41.317Z,1.70
2018-01-16T13:19:43.824Z,1.62
2018-01-16T13:20:46.336Z,1.70
2018-01-16T13:21:49.667Z,1.62
2018-01-16T13:22:52.180Z,1.60
2018-01-16T13:23:55.470Z,1.30
2018-01-16T13:24:58.758Z,1.70
2018-01-16T13:26:02.037Z,1.55
2018-01-16T13:27:05.357Z,1.40
2018-01-16T13:28:07.909Z,1.50
2018-01-16T13:29:10.419Z,1.90
2018-01-16T13:30:12.937Z,1.62
2018-01-16T13:31:15.449Z,2.20
2018-01-16T13:32:17.994Z,2.00
2018-01-16T13:33:20.522Z,1.98
2018-01-16T13:34:23.095Z,2.37
2018-01-16T13:35:25.597Z,1.70
2018-01-16T13:36:28.112Z,1.73
2018-01-16T13:37:31.387Z,2.00
2018-01-16T13:38:34.664Z,2.08
2018-01-16T13:39:37.225Z,1.55
2018-01-16T13:40:39.737Z,1.70
2018-01-16T13:41:42.248Z,1.95
2018-01-16T13:42:44.768Z,2.40
2018-01-16T13:43:47.286Z,1.90
2018-01-16T13:44:49.840Z,2.60
2018-01-16T13:45:52.340Z,1.95
2018-01-16T13:46:55.614Z,1.90
2018-01-16T13:47:58.888Z,1.52
2018-01-16T13:49:01.394Z,1.70
2018-01-16T13:50:03.945Z,2.05
2018-01-16T13:51:06.485Z,1.80
2018-01-16T13:52:09.006Z,1.90
2018-01-16T13:53:11.523Z,1.62
2018-01-16T13:54:14.808Z,2.42
2018-01-16T13:55:17.367Z,1.80
2018-01-16T13:56:19.880Z,2.35